sensor_id;sensor_type;location;lat;lon;timestamp;temperature;humidity
70550;DHT22;58101;48.658;2.328;2023-06-22T00:02:15;22.80;84.50
70550;DHT22;58101;48.658;2.328;2023-06-22T00:04:41;22.70;84.50
70550;DHT22;58101;48.658;2.328;2023-06-22T00:07:06;22.70;84.60
70550;DHT22;58101;48.658;2.328;2023-06-22T00:09:33;22.70;84.50
70550;DHT22;58101;48.658;2.328;2023-06-22T00:11:58;22.60;84.50
70550;DHT22;58101;48.658;2.328;2023-06-22T00:14:24;22.60;85.00
70550;DHT22;58101;48.658;2.328;2023-06-22T00:16:49;22.60;85.00
70550;DHT22;58101;48.658;2.328;2023-06-22T00:19:20;22.60;85.80
70550;DHT22;58101;48.658;2.328;2023-06-22T00:21:47;22.50;86.00
70550;DHT22;58101;48.658;2.328;2023-06-22T00:24:13;22.50;86.30
70550;DHT22;58101;48.658;2.328;2023-06-22T00:26:38;22.50;86.40
70550;DHT22;58101;48.658;2.328;2023-06-22T00:29:04;22.50;86.70
70550;DHT22;58101;48.658;2.328;2023-06-22T00:31:30;22.40;87.00
70550;DHT22;58101;48.658;2.328;2023-06-22T00:33:55;22.40;87.00
70550;DHT22;58101;48.658;2.328;2023-06-22T00:36:21;22.40;87.40
70550;DHT22;58101;48.658;2.328;2023-06-22T00:38:46;22.30;88.70
70550;DHT22;58101;48.658;2.328;2023-06-22T00:41:12;22.30;87.90
70550;DHT22;58101;48.658;2.328;2023-06-22T00:43:37;22.20;88.60
70550;DHT22;58101;48.658;2.328;2023-06-22T00:46:03;22.20;89.10
70550;DHT22;58101;48.658;2.328;2023-06-22T00:48:29;22.20;89.80
70550;DHT22;58101;48.658;2.328;2023-06-22T00:50:54;22.10;90.30
70550;DHT22;58101;48.658;2.328;2023-06-22T00:53:21;22.10;90.50
70550;DHT22;58101;48.658;2.328;2023-06-22T00:55:48;22.10;90.80
70550;DHT22;58101;48.658;2.328;2023-06-22T00:58:18;22.00;91.00
70550;DHT22;58101;48.658;2.328;2023-06-22T01:00:47;22.00;91.00
70550;DHT22;58101;48.658;2.328;2023-06-22T01:03:13;22.00;90.90
70550;DHT22;58101;48.658;2.328;2023-06-22T01:05:39;22.00;90.90
70550;DHT22;58101;48.658;2.328;2023-06-22T01:13:35;22.00;91.00
70550;DHT22;58101;48.658;2.328;2023-06-22T01:16:11;22.00;91.20
70550;DHT22;58101;48.658;2.328;2023-06-22T01:18:41;22.00;91.20
70550;DHT22;58101;48.658;2.328;2023-06-22T01:21:10;22.00;90.90
70550;DHT22;58101;48.658;2.328;2023-06-22T01:28:57;21.90;91.30
70550;DHT22;58101;48.658;2.328;2023-06-22T01:31:26;21.90;91.30
70550;DHT22;58101;48.658;2.328;2023-06-22T01:34:11;21.90;91.20
70550;DHT22;58101;48.658;2.328;2023-06-22T01:36:38;21.90;91.40
70550;DHT22;58101;48.658;2.328;2023-06-22T01:39:05;21.90;91.70
70550;DHT22;58101;48.658;2.328;2023-06-22T01:41:34;21.90;91.70
70550;DHT22;58101;48.658;2.328;2023-06-22T01:44:01;21.90;91.80
70550;DHT22;58101;48.658;2.328;2023-06-22T01:46:32;21.70;92.10
70550;DHT22;58101;48.658;2.328;2023-06-22T01:48:58;21.80;92.20
70550;DHT22;58101;48.658;2.328;2023-06-22T01:51:24;21.80;92.40
70550;DHT22;58101;48.658;2.328;2023-06-22T01:53:49;21.80;92.20
70550;DHT22;58101;48.658;2.328;2023-06-22T01:56:18;21.80;92.20
70550;DHT22;58101;48.658;2.328;2023-06-22T01:59:10;21.80;92.40
70550;DHT22;58101;48.658;2.328;2023-06-22T02:01:43;21.80;92.80
70550;DHT22;58101;48.658;2.328;2023-06-22T02:04:13;21.80;92.30
70550;DHT22;58101;48.658;2.328;2023-06-22T02:06:43;21.80;92.50
70550;DHT22;58101;48.658;2.328;2023-06-22T02:09:13;21.70;92.70
70550;DHT22;58101;48.658;2.328;2023-06-22T02:11:43;21.70;92.80
70550;DHT22;58101;48.658;2.328;2023-06-22T02:14:10;21.70;92.90
70550;DHT22;58101;48.658;2.328;2023-06-22T02:16:36;21.70;93.10
70550;DHT22;58101;48.658;2.328;2023-06-22T02:19:03;21.70;93.20
70550;DHT22;58101;48.658;2.328;2023-06-22T02:21:29;21.70;93.10
70550;DHT22;58101;48.658;2.328;2023-06-22T02:23:56;21.70;93.40
70550;DHT22;58101;48.658;2.328;2023-06-22T02:26:22;21.60;94.00
70550;DHT22;58101;48.658;2.328;2023-06-22T02:28:49;21.60;93.90
70550;DHT22;58101;48.658;2.328;2023-06-22T02:31:14;21.60;94.00
70550;DHT22;58101;48.658;2.328;2023-06-22T02:33:40;21.60;93.90
70550;DHT22;58101;48.658;2.328;2023-06-22T02:36:06;21.60;93.90
70550;DHT22;58101;48.658;2.328;2023-06-22T02:38:35;21.60;94.00
70550;DHT22;58101;48.658;2.328;2023-06-22T02:41:02;21.60;94.10
70550;DHT22;58101;48.658;2.328;2023-06-22T02:43:27;21.60;94.40
70550;DHT22;58101;48.658;2.328;2023-06-22T02:45:53;21.60;94.40
70550;DHT22;58101;48.658;2.328;2023-06-22T02:48:19;21.60;94.60
70550;DHT22;58101;48.658;2.328;2023-06-22T02:50:47;21.60;94.60
70550;DHT22;58101;48.658;2.328;2023-06-22T02:53:13;21.60;94.80
70550;DHT22;58101;48.658;2.328;2023-06-22T02:55:55;21.50;94.90
70550;DHT22;58101;48.658;2.328;2023-06-22T02:58:20;21.60;95.20
70550;DHT22;58101;48.658;2.328;2023-06-22T03:00:46;21.60;94.80
70550;DHT22;58101;48.658;2.328;2023-06-22T03:06:35;21.50;95.00
70550;DHT22;58101;48.658;2.328;2023-06-22T03:09:03;21.50;95.00
70550;DHT22;58101;48.658;2.328;2023-06-22T03:11:33;21.50;95.10
70550;DHT22;58101;48.658;2.328;2023-06-22T03:14:08;21.40;95.10
70550;DHT22;58101;48.658;2.328;2023-06-22T03:16:34;21.40;95.40
70550;DHT22;58101;48.658;2.328;2023-06-22T03:19:02;21.40;95.40
70550;DHT22;58101;48.658;2.328;2023-06-22T03:21:28;21.40;95.60
70550;DHT22;58101;48.658;2.328;2023-06-22T03:24:00;21.30;95.50
70550;DHT22;58101;48.658;2.328;2023-06-22T03:26:25;21.40;95.50
70550;DHT22;58101;48.658;2.328;2023-06-22T03:28:52;21.30;96.10
70550;DHT22;58101;48.658;2.328;2023-06-22T03:31:23;21.30;96.20
70550;DHT22;58101;48.658;2.328;2023-06-22T03:33:50;21.30;96.90
70550;DHT22;58101;48.658;2.328;2023-06-22T03:36:43;21.30;97.50
70550;DHT22;58101;48.658;2.328;2023-06-22T03:39:13;21.30;98.50
70550;DHT22;58101;48.658;2.328;2023-06-22T03:41:45;21.30;99.30
70550;DHT22;58101;48.658;2.328;2023-06-22T03:44:31;21.20;99.60
70550;DHT22;58101;48.658;2.328;2023-06-22T03:46:59;21.20;99.90
70550;DHT22;58101;48.658;2.328;2023-06-22T03:49:32;21.20;99.90
70550;DHT22;58101;48.658;2.328;2023-06-22T03:52:04;21.10;99.90
70550;DHT22;58101;48.658;2.328;2023-06-22T03:54:30;21.10;99.90
70550;DHT22;58101;48.658;2.328;2023-06-22T03:56:59;21.10;99.90
70550;DHT22;58101;48.658;2.328;2023-06-22T03:59:36;21.10;99.90
70550;DHT22;58101;48.658;2.328;2023-06-22T04:02:02;21.10;99.90
70550;DHT22;58101;48.658;2.328;2023-06-22T04:04:28;21.10;99.90
70550;DHT22;58101;48.658;2.328;2023-06-22T04:06:53;21.00;99.90
70550;DHT22;58101;48.658;2.328;2023-06-22T04:09:19;21.00;99.90
70550;DHT22;58101;48.658;2.328;2023-06-22T04:11:44;21.00;99.90
70550;DHT22;58101;48.658;2.328;2023-06-22T04:14:13;20.90;99.90
70550;DHT22;58101;48.658;2.328;2023-06-22T04:16:39;20.90;99.90
70550;DHT22;58101;48.658;2.328;2023-06-22T04:19:04;20.80;99.90
70550;DHT22;58101;48.658;2.328;2023-06-22T04:21:31;20.70;99.90
70550;DHT22;58101;48.658;2.328;2023-06-22T04:24:00;20.60;99.90
70550;DHT22;58101;48.658;2.328;2023-06-22T04:26:25;20.60;99.90
70550;DHT22;58101;48.658;2.328;2023-06-22T04:28:51;20.50;99.90
70550;DHT22;58101;48.658;2.328;2023-06-22T04:31:20;20.50;99.90
70550;DHT22;58101;48.658;2.328;2023-06-22T04:33:46;20.40;99.90
70550;DHT22;58101;48.658;2.328;2023-06-22T04:36:14;20.40;99.90
70550;DHT22;58101;48.658;2.328;2023-06-22T04:38:40;20.40;99.90
70550;DHT22;58101;48.658;2.328;2023-06-22T04:41:06;20.40;99.90
70550;DHT22;58101;48.658;2.328;2023-06-22T04:43:33;20.30;99.90
70550;DHT22;58101;48.658;2.328;2023-06-22T04:46:02;20.30;99.90
70550;DHT22;58101;48.658;2.328;2023-06-22T04:48:31;20.30;99.90
70550;DHT22;58101;48.658;2.328;2023-06-22T04:51:03;20.30;99.90
70550;DHT22;58101;48.658;2.328;2023-06-22T04:53:31;20.30;99.90
70550;DHT22;58101;48.658;2.328;2023-06-22T04:55:57;20.30;99.90
70550;DHT22;58101;48.658;2.328;2023-06-22T04:58:22;20.30;99.90
70550;DHT22;58101;48.658;2.328;2023-06-22T05:00:48;20.30;99.90
70550;DHT22;58101;48.658;2.328;2023-06-22T05:03:17;20.30;99.90
70550;DHT22;58101;48.658;2.328;2023-06-22T05:05:43;20.30;99.90
70550;DHT22;58101;48.658;2.328;2023-06-22T05:08:09;20.30;99.90
70550;DHT22;58101;48.658;2.328;2023-06-22T05:10:35;20.20;99.90
70550;DHT22;58101;48.658;2.328;2023-06-22T05:13:01;20.20;99.90
70550;DHT22;58101;48.658;2.328;2023-06-22T05:15:26;20.20;99.90
70550;DHT22;58101;48.658;2.328;2023-06-22T05:17:56;20.20;99.90
70550;DHT22;58101;48.658;2.328;2023-06-22T05:20:21;20.10;99.90
70550;DHT22;58101;48.658;2.328;2023-06-22T05:22:47;20.20;99.90
70550;DHT22;58101;48.658;2.328;2023-06-22T05:25:13;20.10;99.90
70550;DHT22;58101;48.658;2.328;2023-06-22T05:27:38;20.10;99.90
70550;DHT22;58101;48.658;2.328;2023-06-22T05:30:09;20.10;99.90
70550;DHT22;58101;48.658;2.328;2023-06-22T05:32:38;20.10;99.90
70550;DHT22;58101;48.658;2.328;2023-06-22T05:35:04;20.10;99.90
70550;DHT22;58101;48.658;2.328;2023-06-22T05:37:29;20.10;99.90
70550;DHT22;58101;48.658;2.328;2023-06-22T05:39:55;20.00;99.90
70550;DHT22;58101;48.658;2.328;2023-06-22T05:42:22;20.10;99.90
70550;DHT22;58101;48.658;2.328;2023-06-22T05:44:52;20.10;99.90
70550;DHT22;58101;48.658;2.328;2023-06-22T05:47:18;20.00;99.90
70550;DHT22;58101;48.658;2.328;2023-06-22T05:49:45;20.00;99.90
70550;DHT22;58101;48.658;2.328;2023-06-22T05:52:11;20.00;99.90
70550;DHT22;58101;48.658;2.328;2023-06-22T05:54:37;20.00;99.90
70550;DHT22;58101;48.658;2.328;2023-06-22T05:57:04;20.00;99.90
70550;DHT22;58101;48.658;2.328;2023-06-22T05:59:30;19.90;99.90
70550;DHT22;58101;48.658;2.328;2023-06-22T06:01:55;19.90;99.90
70550;DHT22;58101;48.658;2.328;2023-06-22T06:04:21;19.90;99.90
70550;DHT22;58101;48.658;2.328;2023-06-22T06:06:46;19.90;99.90
70550;DHT22;58101;48.658;2.328;2023-06-22T06:09:15;19.90;99.90
70550;DHT22;58101;48.658;2.328;2023-06-22T06:11:40;19.90;99.90
70550;DHT22;58101;48.658;2.328;2023-06-22T06:14:06;19.80;99.90
70550;DHT22;58101;48.658;2.328;2023-06-22T06:16:32;19.80;99.90
70550;DHT22;58101;48.658;2.328;2023-06-22T06:18:58;19.80;99.90
70550;DHT22;58101;48.658;2.328;2023-06-22T06:21:23;19.80;99.90
70550;DHT22;58101;48.658;2.328;2023-06-22T06:23:49;19.80;99.90
70550;DHT22;58101;48.658;2.328;2023-06-22T06:26:15;19.80;99.90
70550;DHT22;58101;48.658;2.328;2023-06-22T06:28:43;19.80;99.90
70550;DHT22;58101;48.658;2.328;2023-06-22T06:31:09;19.80;99.90
70550;DHT22;58101;48.658;2.328;2023-06-22T06:33:35;19.80;99.90
70550;DHT22;58101;48.658;2.328;2023-06-22T06:36:01;19.70;99.90
70550;DHT22;58101;48.658;2.328;2023-06-22T06:38:31;19.70;99.90
70550;DHT22;58101;48.658;2.328;2023-06-22T06:40:58;19.70;99.90
70550;DHT22;58101;48.658;2.328;2023-06-22T06:43:24;19.60;99.90
70550;DHT22;58101;48.658;2.328;2023-06-22T06:45:50;19.60;99.90
70550;DHT22;58101;48.658;2.328;2023-06-22T06:48:16;19.60;99.90
70550;DHT22;58101;48.658;2.328;2023-06-22T06:50:43;19.60;99.90
70550;DHT22;58101;48.658;2.328;2023-06-22T06:53:09;19.60;99.90
70550;DHT22;58101;48.658;2.328;2023-06-22T06:55:35;19.60;99.90
70550;DHT22;58101;48.658;2.328;2023-06-22T06:58:01;19.40;99.90
70550;DHT22;58101;48.658;2.328;2023-06-22T07:00:29;19.60;99.90
70550;DHT22;58101;48.658;2.328;2023-06-22T07:02:55;19.60;99.90
70550;DHT22;58101;48.658;2.328;2023-06-22T07:05:20;19.50;99.90
70550;DHT22;58101;48.658;2.328;2023-06-22T07:07:46;19.50;99.90
70550;DHT22;58101;48.658;2.328;2023-06-22T07:10:12;19.50;99.90
70550;DHT22;58101;48.658;2.328;2023-06-22T07:12:38;19.50;99.90
70550;DHT22;58101;48.658;2.328;2023-06-22T07:15:05;19.50;99.90
70550;DHT22;58101;48.658;2.328;2023-06-22T07:17:33;19.50;99.90
70550;DHT22;58101;48.658;2.328;2023-06-22T07:19:59;19.40;99.90
70550;DHT22;58101;48.658;2.328;2023-06-22T07:22:25;19.40;99.90
70550;DHT22;58101;48.658;2.328;2023-06-22T07:24:50;19.40;99.90
70550;DHT22;58101;48.658;2.328;2023-06-22T07:27:16;19.40;99.90
70550;DHT22;58101;48.658;2.328;2023-06-22T07:29:45;19.40;99.90
70550;DHT22;58101;48.658;2.328;2023-06-22T07:32:11;19.40;99.90
70550;DHT22;58101;48.658;2.328;2023-06-22T07:34:37;19.40;99.90
70550;DHT22;58101;48.658;2.328;2023-06-22T07:37:03;19.40;99.90
70550;DHT22;58101;48.658;2.328;2023-06-22T07:39:30;19.40;99.90
70550;DHT22;58101;48.658;2.328;2023-06-22T07:41:56;19.40;99.90
70550;DHT22;58101;48.658;2.328;2023-06-22T07:44:23;19.40;99.90
70550;DHT22;58101;48.658;2.328;2023-06-22T07:46:49;19.50;99.90
70550;DHT22;58101;48.658;2.328;2023-06-22T07:49:14;19.50;99.90
70550;DHT22;58101;48.658;2.328;2023-06-22T07:51:40;19.50;99.90
70550;DHT22;58101;48.658;2.328;2023-06-22T07:54:06;19.50;99.90
70550;DHT22;58101;48.658;2.328;2023-06-22T07:56:32;19.40;99.90
70550;DHT22;58101;48.658;2.328;2023-06-22T07:58:58;19.60;99.90
70550;DHT22;58101;48.658;2.328;2023-06-22T08:01:24;19.60;99.90
70550;DHT22;58101;48.658;2.328;2023-06-22T08:03:50;19.60;99.90
70550;DHT22;58101;48.658;2.328;2023-06-22T08:06:15;19.60;99.90
70550;DHT22;58101;48.658;2.328;2023-06-22T08:08:41;19.60;99.90
70550;DHT22;58101;48.658;2.328;2023-06-22T08:11:08;19.60;99.90
70550;DHT22;58101;48.658;2.328;2023-06-22T08:13:34;19.60;99.90
70550;DHT22;58101;48.658;2.328;2023-06-22T08:15:59;19.70;99.90
70550;DHT22;58101;48.658;2.328;2023-06-22T08:18:25;19.70;99.90
70550;DHT22;58101;48.658;2.328;2023-06-22T08:20:50;19.70;99.90
70550;DHT22;58101;48.658;2.328;2023-06-22T08:23:17;19.70;99.90
70550;DHT22;58101;48.658;2.328;2023-06-22T08:25:42;19.80;99.90
70550;DHT22;58101;48.658;2.328;2023-06-22T08:28:08;19.80;99.90
70550;DHT22;58101;48.658;2.328;2023-06-22T08:30:34;19.80;99.90
70550;DHT22;58101;48.658;2.328;2023-06-22T08:32:59;19.80;99.90
70550;DHT22;58101;48.658;2.328;2023-06-22T08:35:25;19.80;99.90
70550;DHT22;58101;48.658;2.328;2023-06-22T08:37:51;19.80;99.90
70550;DHT22;58101;48.658;2.328;2023-06-22T08:40:22;19.80;99.90
70550;DHT22;58101;48.658;2.328;2023-06-22T08:42:48;19.80;99.90
70550;DHT22;58101;48.658;2.328;2023-06-22T08:45:15;19.90;99.90
70550;DHT22;58101;48.658;2.328;2023-06-22T08:47:41;19.90;99.90
70550;DHT22;58101;48.658;2.328;2023-06-22T08:50:09;19.90;99.90
70550;DHT22;58101;48.658;2.328;2023-06-22T08:52:36;19.90;99.90
70550;DHT22;58101;48.658;2.328;2023-06-22T08:55:02;20.00;99.90
70550;DHT22;58101;48.658;2.328;2023-06-22T08:57:28;20.00;99.90
70550;DHT22;58101;48.658;2.328;2023-06-22T08:59:54;20.00;99.90
70550;DHT22;58101;48.658;2.328;2023-06-22T09:02:26;20.10;99.90
70550;DHT22;58101;48.658;2.328;2023-06-22T09:04:58;20.10;99.90
70550;DHT22;58101;48.658;2.328;2023-06-22T09:07:24;20.20;99.90
70550;DHT22;58101;48.658;2.328;2023-06-22T09:09:51;20.30;99.90
70550;DHT22;58101;48.658;2.328;2023-06-22T09:12:18;20.30;99.90
70550;DHT22;58101;48.658;2.328;2023-06-22T09:14:45;20.40;99.90
70550;DHT22;58101;48.658;2.328;2023-06-22T09:17:12;20.50;99.90
70550;DHT22;58101;48.658;2.328;2023-06-22T09:19:38;20.50;99.90
70550;DHT22;58101;48.658;2.328;2023-06-22T09:22:04;20.50;99.90
70550;DHT22;58101;48.658;2.328;2023-06-22T09:24:31;20.50;99.90
70550;DHT22;58101;48.658;2.328;2023-06-22T09:26:57;20.60;99.90
70550;DHT22;58101;48.658;2.328;2023-06-22T09:29:22;20.60;99.90
70550;DHT22;58101;48.658;2.328;2023-06-22T09:31:48;20.70;99.90
70550;DHT22;58101;48.658;2.328;2023-06-22T09:34:14;20.80;99.90
70550;DHT22;58101;48.658;2.328;2023-06-22T09:36:41;20.80;99.90
70550;DHT22;58101;48.658;2.328;2023-06-22T09:39:06;20.90;99.90
70550;DHT22;58101;48.658;2.328;2023-06-22T09:41:32;21.00;99.90
70550;DHT22;58101;48.658;2.328;2023-06-22T09:43:58;21.20;99.90
70550;DHT22;58101;48.658;2.328;2023-06-22T09:46:23;21.30;99.90
70550;DHT22;58101;48.658;2.328;2023-06-22T09:48:53;21.50;99.90
70550;DHT22;58101;48.658;2.328;2023-06-22T09:51:19;21.60;99.90
70550;DHT22;58101;48.658;2.328;2023-06-22T09:53:47;21.70;99.90
70550;DHT22;58101;48.658;2.328;2023-06-22T09:56:13;21.70;99.90
70550;DHT22;58101;48.658;2.328;2023-06-22T09:58:44;21.80;99.90
70550;DHT22;58101;48.658;2.328;2023-06-22T10:01:15;21.90;99.90
70550;DHT22;58101;48.658;2.328;2023-06-22T10:03:41;21.90;99.90
70550;DHT22;58101;48.658;2.328;2023-06-22T10:06:07;21.90;99.90
70550;DHT22;58101;48.658;2.328;2023-06-22T10:08:33;21.80;99.90
70550;DHT22;58101;48.658;2.328;2023-06-22T10:10:58;21.90;99.90
70550;DHT22;58101;48.658;2.328;2023-06-22T10:13:24;21.90;99.90
70550;DHT22;58101;48.658;2.328;2023-06-22T10:15:49;21.90;99.90
70550;DHT22;58101;48.658;2.328;2023-06-22T10:18:18;21.90;99.90
70550;DHT22;58101;48.658;2.328;2023-06-22T10:20:46;21.90;99.90
70550;DHT22;58101;48.658;2.328;2023-06-22T10:23:12;21.90;99.90
70550;DHT22;58101;48.658;2.328;2023-06-22T10:25:37;21.80;99.90
70550;DHT22;58101;48.658;2.328;2023-06-22T10:28:03;21.90;99.90
70550;DHT22;58101;48.658;2.328;2023-06-22T10:30:29;22.00;99.90
70550;DHT22;58101;48.658;2.328;2023-06-22T10:32:57;22.10;99.90
70550;DHT22;58101;48.658;2.328;2023-06-22T10:35:30;22.20;99.90
70550;DHT22;58101;48.658;2.328;2023-06-22T10:40:24;22.40;99.90
70550;DHT22;58101;48.658;2.328;2023-06-22T10:42:50;22.40;99.90
70550;DHT22;58101;48.658;2.328;2023-06-22T10:45:19;22.50;99.90
70550;DHT22;58101;48.658;2.328;2023-06-22T10:47:44;22.60;99.90
70550;DHT22;58101;48.658;2.328;2023-06-22T10:50:22;22.70;99.90
70550;DHT22;58101;48.658;2.328;2023-06-22T10:52:49;22.80;99.90
70550;DHT22;58101;48.658;2.328;2023-06-22T10:55:15;22.90;99.90
70550;DHT22;58101;48.658;2.328;2023-06-22T10:57:44;22.90;99.90
70550;DHT22;58101;48.658;2.328;2023-06-22T11:00:24;22.90;99.90
70550;DHT22;58101;48.658;2.328;2023-06-22T11:02:49;22.90;99.90
70550;DHT22;58101;48.658;2.328;2023-06-22T11:05:15;22.90;99.90
70550;DHT22;58101;48.658;2.328;2023-06-22T11:07:47;22.90;99.90
70550;DHT22;58101;48.658;2.328;2023-06-22T11:10:16;22.80;99.90
70550;DHT22;58101;48.658;2.328;2023-06-22T11:12:42;22.80;99.90
70550;DHT22;58101;48.658;2.328;2023-06-22T11:15:08;22.80;99.90
70550;DHT22;58101;48.658;2.328;2023-06-22T11:17:34;22.80;99.90
70550;DHT22;58101;48.658;2.328;2023-06-22T11:20:00;22.70;99.90
70550;DHT22;58101;48.658;2.328;2023-06-22T11:22:26;22.70;99.90
70550;DHT22;58101;48.658;2.328;2023-06-22T11:24:52;22.70;99.90
70550;DHT22;58101;48.658;2.328;2023-06-22T11:27:18;22.80;99.90
70550;DHT22;58101;48.658;2.328;2023-06-22T11:29:43;22.80;99.90
70550;DHT22;58101;48.658;2.328;2023-06-22T11:32:09;22.90;99.90
70550;DHT22;58101;48.658;2.328;2023-06-22T11:34:35;23.10;99.90
70550;DHT22;58101;48.658;2.328;2023-06-22T11:37:01;23.20;99.90
70550;DHT22;58101;48.658;2.328;2023-06-22T11:39:26;23.30;99.90
70550;DHT22;58101;48.658;2.328;2023-06-22T11:41:52;23.40;99.90
70550;DHT22;58101;48.658;2.328;2023-06-22T11:44:18;23.40;99.90
70550;DHT22;58101;48.658;2.328;2023-06-22T11:46:43;23.50;99.90
70550;DHT22;58101;48.658;2.328;2023-06-22T11:49:09;23.60;99.90
70550;DHT22;58101;48.658;2.328;2023-06-22T11:51:35;23.60;99.90
70550;DHT22;58101;48.658;2.328;2023-06-22T11:54:00;23.60;99.90
70550;DHT22;58101;48.658;2.328;2023-06-22T11:56:27;23.70;99.90
70550;DHT22;58101;48.658;2.328;2023-06-22T11:58:53;23.80;99.90
70550;DHT22;58101;48.658;2.328;2023-06-22T12:01:19;24.00;99.90
70550;DHT22;58101;48.658;2.328;2023-06-22T12:03:45;24.10;99.90
70550;DHT22;58101;48.658;2.328;2023-06-22T12:06:11;24.40;99.90
70550;DHT22;58101;48.658;2.328;2023-06-22T12:08:37;24.60;99.90
70550;DHT22;58101;48.658;2.328;2023-06-22T12:11:03;24.80;99.90
70550;DHT22;58101;48.658;2.328;2023-06-22T12:13:28;25.00;99.90
70550;DHT22;58101;48.658;2.328;2023-06-22T12:15:54;25.20;98.90
70550;DHT22;58101;48.658;2.328;2023-06-22T12:18:19;25.30;98.80
70550;DHT22;58101;48.658;2.328;2023-06-22T12:20:48;25.40;98.10
70550;DHT22;58101;48.658;2.328;2023-06-22T12:23:15;25.30;95.70
70550;DHT22;58101;48.658;2.328;2023-06-22T12:25:40;25.30;96.20
70550;DHT22;58101;48.658;2.328;2023-06-22T12:28:06;25.20;93.40
70550;DHT22;58101;48.658;2.328;2023-06-22T12:30:35;25.10;95.40
70550;DHT22;58101;48.658;2.328;2023-06-22T12:33:00;25.00;96.20
70550;DHT22;58101;48.658;2.328;2023-06-22T12:35:26;25.10;97.20
70550;DHT22;58101;48.658;2.328;2023-06-22T12:37:52;25.10;98.20
70550;DHT22;58101;48.658;2.328;2023-06-22T12:40:18;25.20;97.00
70550;DHT22;58101;48.658;2.328;2023-06-22T12:42:44;25.30;97.10
70550;DHT22;58101;48.658;2.328;2023-06-22T12:45:10;25.30;95.10
70550;DHT22;58101;48.658;2.328;2023-06-22T12:47:36;25.30;95.60
70550;DHT22;58101;48.658;2.328;2023-06-22T12:50:01;25.40;96.30
70550;DHT22;58101;48.658;2.328;2023-06-22T12:52:29;25.40;96.80
70550;DHT22;58101;48.658;2.328;2023-06-22T12:54:55;25.50;96.70
70550;DHT22;58101;48.658;2.328;2023-06-22T12:57:21;25.50;96.50
70550;DHT22;58101;48.658;2.328;2023-06-22T12:59:46;25.40;94.70
70550;DHT22;58101;48.658;2.328;2023-06-22T13:02:12;25.40;95.90
70550;DHT22;58101;48.658;2.328;2023-06-22T13:04:38;25.30;95.40
70550;DHT22;58101;48.658;2.328;2023-06-22T13:07:04;25.20;96.20
70550;DHT22;58101;48.658;2.328;2023-06-22T13:09:30;25.20;97.10
70550;DHT22;58101;48.658;2.328;2023-06-22T13:12:02;25.20;98.30
70550;DHT22;58101;48.658;2.328;2023-06-22T13:14:28;25.20;97.00
70550;DHT22;58101;48.658;2.328;2023-06-22T13:16:53;25.10;95.00
70550;DHT22;58101;48.658;2.328;2023-06-22T13:19:19;25.10;94.80
70550;DHT22;58101;48.658;2.328;2023-06-22T13:21:45;25.10;95.10
70550;DHT22;58101;48.658;2.328;2023-06-22T13:24:10;25.10;93.50
70550;DHT22;58101;48.658;2.328;2023-06-22T13:26:36;25.00;95.10
70550;DHT22;58101;48.658;2.328;2023-06-22T13:29:01;25.00;96.10
70550;DHT22;58101;48.658;2.328;2023-06-22T13:31:27;24.90;97.30
70550;DHT22;58101;48.658;2.328;2023-06-22T13:33:53;24.90;96.80
70550;DHT22;58101;48.658;2.328;2023-06-22T13:36:18;24.90;96.30
70550;DHT22;58101;48.658;2.328;2023-06-22T13:38:45;24.80;95.30
70550;DHT22;58101;48.658;2.328;2023-06-22T13:41:10;24.80;95.70
70550;DHT22;58101;48.658;2.328;2023-06-22T13:43:36;24.80;94.70
70550;DHT22;58101;48.658;2.328;2023-06-22T13:46:02;24.80;94.70
70550;DHT22;58101;48.658;2.328;2023-06-22T13:48:27;24.80;95.70
70550;DHT22;58101;48.658;2.328;2023-06-22T13:50:54;24.80;95.10
70550;DHT22;58101;48.658;2.328;2023-06-22T13:53:19;24.70;94.80
70550;DHT22;58101;48.658;2.328;2023-06-22T13:55:48;24.80;95.40
70550;DHT22;58101;48.658;2.328;2023-06-22T13:58:14;24.80;95.30
70550;DHT22;58101;48.658;2.328;2023-06-22T14:00:40;24.80;95.50
70550;DHT22;58101;48.658;2.328;2023-06-22T14:03:05;24.80;95.20
70550;DHT22;58101;48.658;2.328;2023-06-22T14:05:31;24.80;94.90
70550;DHT22;58101;48.658;2.328;2023-06-22T14:07:57;24.80;95.90
70550;DHT22;58101;48.658;2.328;2023-06-22T14:10:22;24.80;95.60
70550;DHT22;58101;48.658;2.328;2023-06-22T14:12:48;24.70;95.40
70550;DHT22;58101;48.658;2.328;2023-06-22T14:15:14;24.70;95.30
70550;DHT22;58101;48.658;2.328;2023-06-22T14:17:39;24.70;95.30
70550;DHT22;58101;48.658;2.328;2023-06-22T14:20:05;24.60;94.90
70550;DHT22;58101;48.658;2.328;2023-06-22T14:22:33;24.60;95.40
70550;DHT22;58101;48.658;2.328;2023-06-22T14:25:06;24.50;95.30
70550;DHT22;58101;48.658;2.328;2023-06-22T14:27:32;24.60;95.40
70550;DHT22;58101;48.658;2.328;2023-06-22T14:29:58;24.50;95.20
70550;DHT22;58101;48.658;2.328;2023-06-22T14:32:23;24.50;94.20
70550;DHT22;58101;48.658;2.328;2023-06-22T14:34:49;24.50;94.90
70550;DHT22;58101;48.658;2.328;2023-06-22T14:44:05;24.40;96.50
70550;DHT22;58101;48.658;2.328;2023-06-22T14:46:31;24.40;95.60
70550;DHT22;58101;48.658;2.328;2023-06-22T14:48:57;24.40;95.80
70550;DHT22;58101;48.658;2.328;2023-06-22T14:51:22;24.50;96.20
70550;DHT22;58101;48.658;2.328;2023-06-22T14:53:48;24.50;96.60
70550;DHT22;58101;48.658;2.328;2023-06-22T14:56:14;24.60;95.80
70550;DHT22;58101;48.658;2.328;2023-06-22T14:58:41;24.60;95.30
70550;DHT22;58101;48.658;2.328;2023-06-22T15:01:11;24.70;93.90
70550;DHT22;58101;48.658;2.328;2023-06-22T15:03:36;24.80;93.50
70550;DHT22;58101;48.658;2.328;2023-06-22T15:06:03;25.00;93.90
70550;DHT22;58101;48.658;2.328;2023-06-22T15:08:29;25.10;92.60
70550;DHT22;58101;48.658;2.328;2023-06-22T15:11:01;25.40;91.60
70550;DHT22;58101;48.658;2.328;2023-06-22T15:16:49;25.60;89.30
70550;DHT22;58101;48.658;2.328;2023-06-22T15:31:54;26.30;83.30
70550;DHT22;58101;48.658;2.328;2023-06-22T15:34:20;26.20;80.90
70550;DHT22;58101;48.658;2.328;2023-06-22T15:36:45;26.20;80.00
70550;DHT22;58101;48.658;2.328;2023-06-22T15:39:11;26.10;81.80
70550;DHT22;58101;48.658;2.328;2023-06-22T15:41:40;26.20;81.60
70550;DHT22;58101;48.658;2.328;2023-06-22T15:44:34;26.10;78.80
70550;DHT22;58101;48.658;2.328;2023-06-22T15:47:28;26.20;80.40
70550;DHT22;58101;48.658;2.328;2023-06-22T15:49:54;26.30;80.00
70550;DHT22;58101;48.658;2.328;2023-06-22T15:52:19;26.20;78.30
70550;DHT22;58101;48.658;2.328;2023-06-22T15:54:45;26.20;76.10
70550;DHT22;58101;48.658;2.328;2023-06-22T15:57:11;26.20;76.90
70550;DHT22;58101;48.658;2.328;2023-06-22T15:59:41;26.20;77.10
70550;DHT22;58101;48.658;2.328;2023-06-22T16:02:10;26.20;76.30
70550;DHT22;58101;48.658;2.328;2023-06-22T16:04:36;26.20;75.00
70550;DHT22;58101;48.658;2.328;2023-06-22T16:07:04;26.20;75.20
70550;DHT22;58101;48.658;2.328;2023-06-22T16:09:31;26.20;75.50